AFR15D LFBD-LFPO
Flight info
| Callsign | AFR15D |
|---|---|
| Flight time | N/A |
| Altitude | 26000 |
| Route | CNA DCT TUDRA DCT BEVOL UT158 AMB |
| Aircraft | A320/M-SDE3FGHIRWY/LB1 |
Departure
| Time | 2026-05-09 09:18 |
|---|---|
| Airport | Bordeaux–Mérignac Airport (LFBD) |
Arrival
| Time | N/A |
|---|---|
| Airport | Paris-Orly Airport (LFPO) |
| Time | Latitude | Longitude | Altitude | Speed | Heading |
|---|---|---|---|---|---|
| 2026-05-09 08:54 | 44.83125 | -0.70443 | 167 ft | 0 kts | 113° |
| 2026-05-09 09:08 | 44.83167 | -0.70505 | 167 ft | 4 kts | 177° |
| 2026-05-09 09:08 | 44.83190 | -0.70496 | 167 ft | 4 kts | 220° |
| 2026-05-09 09:08 | 44.83208 | -0.70472 | 167 ft | 1 kts | 225° |
| 2026-05-09 09:12 | 44.83196 | -0.70495 | 167 ft | 7 kts | 240° |
| 2026-05-09 09:12 | 44.83201 | -0.70552 | 167 ft | 7 kts | 292° |
| 2026-05-09 09:12 | 44.83188 | -0.70628 | 167 ft | 8 kts | 226° |
| 2026-05-09 09:12 | 44.83149 | -0.70680 | 168 ft | 12 kts | 225° |
| 2026-05-09 09:13 | 44.83077 | -0.70784 | 169 ft | 14 kts | 226° |
| 2026-05-09 09:13 | 44.83007 | -0.70881 | 169 ft | 18 kts | 224° |
| 2026-05-09 09:13 | 44.82901 | -0.71038 | 170 ft | 21 kts | 227° |
| 2026-05-09 09:13 | 44.82797 | -0.71183 | 169 ft | 22 kts | 225° |
| 2026-05-09 09:14 | 44.82686 | -0.71344 | 170 ft | 23 kts | 225° |
| 2026-05-09 09:14 | 44.82580 | -0.71495 | 170 ft | 20 kts | 223° |
| 2026-05-09 09:14 | 44.82483 | -0.71635 | 170 ft | 20 kts | 224° |
| 2026-05-09 09:14 | 44.82382 | -0.71776 | 170 ft | 21 kts | 224° |
| 2026-05-09 09:15 | 44.82275 | -0.71927 | 170 ft | 22 kts | 225° |
| 2026-05-09 09:15 | 44.82163 | -0.72087 | 170 ft | 24 kts | 225° |
| 2026-05-09 09:15 | 44.82085 | -0.72268 | 170 ft | 19 kts | 256° |
| 2026-05-09 09:15 | 44.82082 | -0.72354 | 170 ft | 0 kts | 274° |
| 2026-05-09 09:16 | 44.82126 | -0.72464 | 170 ft | 11 kts | 314° |
| 2026-05-09 09:16 | 44.82178 | -0.72500 | 171 ft | 7 kts | 356° |
| 2026-05-09 09:17 | 44.82206 | -0.72481 | 171 ft | 0 kts | 44° |
| 2026-05-09 09:17 | 44.82225 | -0.72454 | 170 ft | 18 kts | 45° |
| 2026-05-09 09:17 | 44.82504 | -0.72054 | 171 ft | 92 kts | 45° |
| 2026-05-09 09:17 | 44.83097 | -0.71208 | 168 ft | 148 kts | 45° |
| 2026-05-09 09:18 | 44.83854 | -0.70081 | 580 ft | 160 kts | 51° |
| 2026-05-09 09:18 | 44.84633 | -0.68945 | 1204 ft | 163 kts | 51° |
| 2026-05-09 09:18 | 44.85412 | -0.67810 | 1911 ft | 164 kts | 50° |
| 2026-05-09 09:18 | 44.86245 | -0.66608 | 2321 ft | 181 kts | 50° |
| 2026-05-09 09:19 | 44.87186 | -0.65259 | 2611 ft | 205 kts | 49° |
| 2026-05-09 09:19 | 44.88245 | -0.63741 | 2903 ft | 230 kts | 48° |
| 2026-05-09 09:19 | 44.89432 | -0.62042 | 3276 ft | 254 kts | 50° |
| 2026-05-09 09:19 | 44.90705 | -0.60221 | 3919 ft | 266 kts | 46° |
| 2026-05-09 09:20 | 44.91576 | -0.58982 | 4459 ft | 271 kts | 46° |
| 2026-05-09 09:20 | 44.93684 | -0.56928 | 5518 ft | 282 kts | 25° |
| 2026-05-09 09:20 | 44.95571 | -0.56150 | 6426 ft | 284 kts | 8° |
| 2026-05-09 09:20 | 44.97565 | -0.55971 | 7227 ft | 290 kts | 2° |
| 2026-05-09 09:21 | 44.99597 | -0.55858 | 8014 ft | 296 kts | 2° |
| 2026-05-09 09:21 | 45.01664 | -0.55747 | 8847 ft | 299 kts | 2° |
| 2026-05-09 09:21 | 45.03723 | -0.55636 | 9693 ft | 302 kts | 1° |
| 2026-05-09 09:21 | 45.05836 | -0.55521 | 10413 ft | 308 kts | 1° |
| 2026-05-09 09:22 | 45.08060 | -0.55398 | 10662 ft | 332 kts | 1° |
| 2026-05-09 09:22 | 45.10431 | -0.55263 | 11068 ft | 347 kts | 1° |
| 2026-05-09 09:22 | 45.12876 | -0.55121 | 11703 ft | 354 kts | 2° |
| 2026-05-09 09:22 | 45.15335 | -0.54678 | 12402 ft | 359 kts | 13° |
| 2026-05-09 09:23 | 45.17742 | -0.53645 | 13120 ft | 364 kts | 18° |
| 2026-05-09 09:23 | 45.20160 | -0.52520 | 13839 ft | 368 kts | 18° |
| 2026-05-09 09:23 | 45.22601 | -0.51378 | 14458 ft | 372 kts | 18° |
| 2026-05-09 09:23 | 45.25073 | -0.50225 | 15081 ft | 376 kts | 18° |
| 2026-05-09 09:24 | 45.27572 | -0.49064 | 15685 ft | 380 kts | 17° |
| 2026-05-09 09:24 | 45.30103 | -0.47894 | 16289 ft | 385 kts | 17° |
| 2026-05-09 09:24 | 45.32662 | -0.46711 | 16884 ft | 389 kts | 17° |
| 2026-05-09 09:24 | 45.35255 | -0.45513 | 17493 ft | 394 kts | 17° |
| 2026-05-09 09:25 | 45.37877 | -0.44296 | 18072 ft | 398 kts | 17° |
| 2026-05-09 09:25 | 45.40524 | -0.43065 | 18622 ft | 402 kts | 17° |
| 2026-05-09 09:25 | 45.43196 | -0.41821 | 19140 ft | 406 kts | 17° |
| 2026-05-09 09:25 | 45.45894 | -0.40562 | 19666 ft | 410 kts | 17° |
| 2026-05-09 09:26 | 45.47697 | -0.39719 | 20012 ft | 412 kts | 16° |
| 2026-05-09 09:26 | 45.51367 | -0.38002 | 20699 ft | 418 kts | 16° |
| 2026-05-09 09:26 | 45.54142 | -0.36704 | 21211 ft | 422 kts | 16° |
| 2026-05-09 09:26 | 45.56938 | -0.35395 | 21721 ft | 426 kts | 16° |
| 2026-05-09 09:27 | 45.59773 | -0.34067 | 22222 ft | 430 kts | 16° |
| 2026-05-09 09:27 | 45.62626 | -0.32723 | 22723 ft | 434 kts | 17° |
| 2026-05-09 09:27 | 45.65423 | -0.31005 | 23190 ft | 440 kts | 27° |
| 2026-05-09 09:27 | 45.68016 | -0.28637 | 23637 ft | 446 kts | 37° |
| 2026-05-09 09:28 | 45.70397 | -0.25776 | 24013 ft | 449 kts | 40° |
| 2026-05-09 09:28 | 45.72783 | -0.22853 | 24395 ft | 453 kts | 40° |
| 2026-05-09 09:28 | 45.75188 | -0.19915 | 24762 ft | 457 kts | 40° |
| 2026-05-09 09:28 | 45.77616 | -0.16949 | 25128 ft | 460 kts | 40° |
| 2026-05-09 09:29 | 45.80028 | -0.14003 | 25479 ft | 464 kts | 40° |
| 2026-05-09 09:29 | 45.82492 | -0.10990 | 25832 ft | 467 kts | 40° |
| 2026-05-09 09:29 | 45.84963 | -0.07957 | 25948 ft | 464 kts | 40° |
| 2026-05-09 09:29 | 45.87379 | -0.04989 | 25973 ft | 452 kts | 40° |
| 2026-05-09 09:30 | 45.89756 | -0.02066 | 25970 ft | 448 kts | 40° |
| 2026-05-09 09:30 | 45.92114 | 0.00835 | 25959 ft | 446 kts | 40° |
| 2026-05-09 09:30 | 45.94468 | 0.03732 | 25979 ft | 445 kts | 40° |
| 2026-05-09 09:30 | 45.96816 | 0.06621 | 25978 ft | 444 kts | 40° |
| 2026-05-09 09:31 | 45.99159 | 0.09513 | 25978 ft | 444 kts | 40° |
| 2026-05-09 09:31 | 46.01504 | 0.12414 | 25978 ft | 444 kts | 40° |
| 2026-05-09 09:31 | 46.03852 | 0.15323 | 25980 ft | 444 kts | 40° |
| 2026-05-09 09:32 | 46.08537 | 0.21132 | 25981 ft | 444 kts | 40° |
| 2026-05-09 09:32 | 46.10880 | 0.24037 | 25980 ft | 444 kts | 40° |
| 2026-05-09 09:32 | 46.13218 | 0.26939 | 25980 ft | 444 kts | 40° |
| 2026-05-09 09:32 | 46.15558 | 0.29849 | 25979 ft | 444 kts | 40° |
| 2026-05-09 09:33 | 46.17894 | 0.32764 | 25997 ft | 444 kts | 40° |
| 2026-05-09 09:33 | 46.20234 | 0.35685 | 25998 ft | 444 kts | 40° |
| 2026-05-09 09:33 | 46.22568 | 0.38604 | 25996 ft | 444 kts | 40° |
| 2026-05-09 09:33 | 46.24903 | 0.41524 | 25983 ft | 443 kts | 39° |
| 2026-05-09 09:34 | 46.27230 | 0.44437 | 25990 ft | 443 kts | 39° |
| 2026-05-09 09:34 | 46.29559 | 0.47352 | 25994 ft | 442 kts | 39° |
| 2026-05-09 09:34 | 46.31884 | 0.50270 | 26002 ft | 442 kts | 40° |
| 2026-05-09 09:36 | 46.48078 | 0.70706 | 26003 ft | 441 kts | 40° |
| 2026-05-09 09:36 | 46.50392 | 0.73628 | 26002 ft | 440 kts | 38° |
| 2026-05-09 09:36 | 46.52858 | 0.76217 | 25999 ft | 438 kts | 28° |
| 2026-05-09 09:37 | 46.55565 | 0.78198 | 26000 ft | 434 kts | 18° |
| 2026-05-09 09:37 | 46.58385 | 0.79497 | 26005 ft | 429 kts | 8° |
| 2026-05-09 09:37 | 46.61299 | 0.80406 | 26004 ft | 428 kts | 8° |
| 2026-05-09 09:37 | 46.64209 | 0.81321 | 25989 ft | 428 kts | 8° |
| 2026-05-09 09:38 | 46.67118 | 0.82245 | 25996 ft | 427 kts | 8° |
| 2026-05-09 09:38 | 46.70018 | 0.83165 | 26000 ft | 427 kts | 8° |
| 2026-05-09 09:38 | 46.71945 | 0.83776 | 26001 ft | 427 kts | 8° |
| 2026-05-09 09:38 | 46.74849 | 0.84699 | 25998 ft | 426 kts | 8° |
| 2026-05-09 09:39 | 46.77747 | 0.85619 | 26002 ft | 426 kts | 8° |
| 2026-05-09 09:39 | 46.80645 | 0.86536 | 26000 ft | 426 kts | 8° |
| 2026-05-09 09:39 | 46.83543 | 0.87454 | 25998 ft | 426 kts | 8° |
| 2026-05-09 09:39 | 46.86433 | 0.88372 | 25995 ft | 426 kts | 8° |
| 2026-05-09 09:40 | 46.90305 | 0.89607 | 25995 ft | 426 kts | 8° |
| 2026-05-09 09:40 | 46.93201 | 0.90529 | 25994 ft | 425 kts | 8° |